createdAt,value
2023-04-22T00:24:29.981Z,99.90
2023-04-22T00:29:25.662Z,99.90
2023-04-22T00:36:46.856Z,99.90
2023-04-22T00:44:10.154Z,99.90
2023-04-22T00:46:39.044Z,99.90
2023-04-22T00:49:06.843Z,99.90
2023-04-22T00:56:33.490Z,99.90
2023-04-22T01:01:28.002Z,99.90
2023-04-22T01:06:24.315Z,99.90
2023-04-22T01:08:51.299Z,99.90
2023-04-22T01:11:18.901Z,99.90
2023-04-22T01:13:46.154Z,99.90
2023-04-22T01:16:13.693Z,99.90
2023-04-22T01:30:56.265Z,99.90
2023-04-22T01:50:34.464Z,99.90
2023-04-22T01:53:01.631Z,99.90
2023-04-22T02:05:17.992Z,99.90
2023-04-22T02:15:11.539Z,99.90
2023-04-22T02:22:33.524Z,99.90
2023-04-22T02:47:07.069Z,99.90
2023-04-22T02:49:33.900Z,99.90
2023-04-22T02:56:54.640Z,99.90
2023-04-22T03:06:59.750Z,99.90
2023-04-22T03:14:20.650Z,99.90
2023-04-22T04:03:58.914Z,99.90
2023-04-22T04:19:01.460Z,99.90
2023-04-22T04:31:29.043Z,99.90
2023-04-22T04:33:57.704Z,99.90
2023-04-22T04:51:26.500Z,99.90
2023-04-22T05:08:58.969Z,99.90
2023-04-22T05:16:27.275Z,99.90
2023-04-22T05:33:41.024Z,99.90
2023-04-22T05:51:03.942Z,99.90
2023-04-22T05:58:27.322Z,99.90
2023-04-22T06:00:55.215Z,99.90
2023-04-22T06:33:21.147Z,99.90
2023-04-22T06:38:15.144Z,99.90
2023-04-22T06:40:56.637Z,99.90
2023-04-22T06:59:02.718Z,99.90
2023-04-22T07:13:58.228Z,99.90
2023-04-22T07:23:46.252Z,99.90
2023-04-22T07:28:39.956Z,99.90
2023-04-22T07:55:38.143Z,99.90
2023-04-22T07:58:06.574Z,99.90
2023-04-22T08:00:35.030Z,99.90
2023-04-22T08:03:02.882Z,99.90
2023-04-22T08:05:30.087Z,99.90
2023-04-22T08:10:23.902Z,99.90
2023-04-22T08:15:17.836Z,99.90
2023-04-22T08:20:12.234Z,99.90
2023-04-22T08:22:38.882Z,99.90
2023-04-22T08:25:06.646Z,99.90
2023-04-22T08:32:27.943Z,99.90
2023-04-22T08:35:01.409Z,99.90
2023-04-22T08:39:58.365Z,99.90
2023-04-22T08:42:26.739Z,99.90
2023-04-22T08:44:54.176Z,99.90
2023-04-22T08:47:21.497Z,99.90
2023-04-22T08:49:50.232Z,99.90
2023-04-22T08:54:43.915Z,99.90
2023-04-22T08:57:11.280Z,99.90
2023-04-22T08:59:39.079Z,99.90
2023-04-22T09:02:08.640Z,99.90
2023-04-22T09:09:31.999Z,99.90
2023-04-22T09:11:58.861Z,99.90
2023-04-22T09:14:26.611Z,99.90
2023-04-22T09:16:53.449Z,99.90
2023-04-22T09:19:24.563Z,99.90
2023-04-22T09:21:54.122Z,99.90
2023-04-22T09:24:21.143Z,99.90
2023-04-22T09:26:48.567Z,99.90
2023-04-22T09:29:16.247Z,99.90
2023-04-22T09:31:47.722Z,99.90
2023-04-22T09:36:43.629Z,99.90
2023-04-22T09:39:10.409Z,99.90
2023-04-22T09:41:39.345Z,99.90
2023-04-22T09:44:10.464Z,99.90
2023-04-22T09:46:37.173Z,99.90
2023-04-22T09:49:03.799Z,99.90
2023-04-22T09:51:30.688Z,99.90
2023-04-22T09:54:04.096Z,99.90
2023-04-22T09:56:50.497Z,99.90
2023-04-22T09:59:28.172Z,99.90
2023-04-22T10:02:04.409Z,99.90
2023-04-22T10:04:31.176Z,99.90
2023-04-22T10:06:58.044Z,99.40
2023-04-22T10:09:25.570Z,99.90
2023-04-22T10:11:54.500Z,99.90
2023-04-22T10:14:25.347Z,99.90
2023-04-22T10:16:59.474Z,99.90
2023-04-22T10:19:27.286Z,99.90
2023-04-22T10:21:56.984Z,99.90
2023-04-22T10:24:27.466Z,99.70
2023-04-22T10:26:59.923Z,99.80
2023-04-22T10:29:28.028Z,99.10
2023-04-22T10:32:10.230Z,98.90
2023-04-22T10:34:38.913Z,98.90
2023-04-22T10:37:11.715Z,99.20
2023-04-22T10:39:40.522Z,98.90
2023-04-22T10:42:10.303Z,98.90
2023-04-22T10:44:53.939Z,98.00
2023-04-22T10:47:34.767Z,97.50
2023-04-22T10:50:30.911Z,97.80
2023-04-22T10:53:36.332Z,97.50
2023-04-22T10:56:17.911Z,97.40
2023-04-22T10:58:44.568Z,97.40
2023-04-22T11:01:17.213Z,97.50
2023-04-22T11:03:44.165Z,96.80
2023-04-22T11:06:18.935Z,97.50
2023-04-22T11:08:50.226Z,97.90
2023-04-22T11:11:18.662Z,97.50
2023-04-22T11:16:14.060Z,96.30
2023-04-22T11:18:40.768Z,96.60
2023-04-22T11:21:09.221Z,97.00
2023-04-22T11:26:05.946Z,97.00
2023-04-22T11:28:32.977Z,96.60
2023-04-22T11:31:07.188Z,96.20
2023-04-22T11:33:34.814Z,96.50
2023-04-22T11:36:02.087Z,96.30
2023-04-22T11:38:28.901Z,96.30
2023-04-22T11:40:57.878Z,95.80
2023-04-22T11:43:24.901Z,96.40
2023-04-22T11:45:51.782Z,95.60
2023-04-22T11:48:18.474Z,96.40
2023-04-22T11:50:45.418Z,95.90
2023-04-22T11:53:23.912Z,95.70
2023-04-22T11:55:51.328Z,95.50
2023-04-22T11:58:27.053Z,96.30
2023-04-22T12:00:56.164Z,95.60
2023-04-22T12:03:25.574Z,95.60
2023-04-22T12:05:57.743Z,96.20
2023-04-22T12:08:33.118Z,93.10
2023-04-22T12:11:02.458Z,95.60
2023-04-22T12:13:32.909Z,96.00
2023-04-22T12:16:01.835Z,96.70
2023-04-22T12:18:30.604Z,95.00
2023-04-22T12:21:13.628Z,94.40
2023-04-22T12:23:51.170Z,94.50
2023-04-22T12:26:20.094Z,94.40
2023-04-22T12:31:15.419Z,90.70
2023-04-22T12:33:42.964Z,93.50
2023-04-22T12:36:09.873Z,93.60
2023-04-22T12:38:36.758Z,93.60
2023-04-22T12:41:04.930Z,93.80
2023-04-22T12:43:33.402Z,93.60
2023-04-22T12:46:00.170Z,92.30
2023-04-22T12:48:26.897Z,92.70
2023-04-22T12:50:53.586Z,92.20
2023-04-22T12:53:21.861Z,92.60
2023-04-22T12:55:48.546Z,92.20
2023-04-22T13:00:42.559Z,91.60
2023-04-22T13:03:09.437Z,91.10
2023-04-22T13:05:36.155Z,91.70
2023-04-22T13:08:07.486Z,92.00
2023-04-22T13:10:35.027Z,92.00
2023-04-22T13:13:17.055Z,92.50
2023-04-22T13:15:47.602Z,92.20
2023-04-22T13:18:16.107Z,92.40
2023-04-22T13:20:42.834Z,91.90
2023-04-22T13:23:10.403Z,92.00
2023-04-22T13:25:37.125Z,91.80
2023-04-22T13:28:03.835Z,91.80
2023-04-22T13:30:30.433Z,91.40
2023-04-22T13:32:57.069Z,91.20
2023-04-22T13:35:24.248Z,91.00
2023-04-22T13:37:51.088Z,91.00
2023-04-22T13:40:17.706Z,90.60
2023-04-22T13:42:44.417Z,91.30
2023-04-22T13:45:11.257Z,90.80
2023-04-22T13:47:37.871Z,91.50
2023-04-22T13:50:05.963Z,90.50
2023-04-22T13:52:32.794Z,90.20
2023-04-22T13:54:59.392Z,90.50
2023-04-22T13:57:26.023Z,90.20
2023-04-22T13:59:52.632Z,90.20
2023-04-22T14:02:19.259Z,89.60
2023-04-22T14:04:46.022Z,89.90
2023-04-22T14:07:12.969Z,90.10
2023-04-22T14:09:39.782Z,90.30
2023-04-22T14:12:07.868Z,90.40
2023-04-22T14:14:34.643Z,90.90
2023-04-22T14:17:01.481Z,90.90
2023-04-22T14:19:30.138Z,91.20
2023-04-22T14:21:56.843Z,90.40
2023-04-22T14:24:24.333Z,90.50
2023-04-22T14:26:52.280Z,90.90
2023-04-22T14:29:19.046Z,90.30
2023-04-22T14:31:45.761Z,90.40
2023-04-22T14:34:12.383Z,90.70
2023-04-22T14:36:39.007Z,90.60
2023-04-22T14:39:06.613Z,90.40
2023-04-22T14:41:33.260Z,90.10
2023-04-22T14:43:59.919Z,90.10
2023-04-22T14:46:26.839Z,90.50
2023-04-22T14:48:53.523Z,90.20
2023-04-22T14:51:20.157Z,88.80
2023-04-22T14:53:46.885Z,89.70
2023-04-22T14:58:40.735Z,89.10
2023-04-22T15:01:07.746Z,89.50
2023-04-22T15:06:02.900Z,89.60
2023-04-22T15:08:29.657Z,88.50
2023-04-22T15:10:56.557Z,89.30
2023-04-22T15:13:23.204Z,91.60
2023-04-22T15:15:49.951Z,89.80
2023-04-22T15:18:16.641Z,90.20
2023-04-22T15:20:43.303Z,90.10
2023-04-22T15:23:09.990Z,90.40
2023-04-22T15:25:37.382Z,90.10
2023-04-22T15:28:04.127Z,90.30
2023-04-22T15:30:30.774Z,90.60
2023-04-22T15:32:57.508Z,90.70
2023-04-22T15:35:24.289Z,90.90
2023-04-22T15:37:50.976Z,90.70
2023-04-22T15:40:17.580Z,90.50
2023-04-22T15:42:44.247Z,90.60
2023-04-22T15:45:11.292Z,90.80
2023-04-22T15:47:38.009Z,90.90
2023-04-22T15:50:09.033Z,90.80
2023-04-22T15:55:07.941Z,90.90
2023-04-22T15:57:35.388Z,91.10
2023-04-22T16:00:11.658Z,92.30
2023-04-22T16:02:43.794Z,95.60
2023-04-22T16:05:11.752Z,96.70
2023-04-22T16:07:38.962Z,97.50
2023-04-22T16:10:06.427Z,97.80
2023-04-22T16:12:34.244Z,98.20
2023-04-22T16:17:29.647Z,99.20
2023-04-22T16:22:23.536Z,99.10
2023-04-22T16:32:13.677Z,99.90
2023-04-22T16:37:08.052Z,99.90
2023-04-22T16:39:34.893Z,99.90
2023-04-22T16:42:02.292Z,99.90
2023-04-22T16:44:29.008Z,99.90
2023-04-22T17:04:08.553Z,99.90
2023-04-22T17:13:59.947Z,99.90
2023-04-22T17:16:26.734Z,99.90
2023-04-22T17:21:22.960Z,99.90
2023-04-22T17:36:07.507Z,99.90
2023-04-22T17:43:28.379Z,99.90
2023-04-22T18:00:38.071Z,99.90
2023-04-22T18:03:05.660Z,99.90
2023-04-22T18:08:03.988Z,99.90
2023-04-22T18:12:58.242Z,99.90
2023-04-22T18:20:20.129Z,99.90
2023-04-22T18:22:53.703Z,99.90
2023-04-22T18:30:17.032Z,99.90
2023-04-22T18:32:43.824Z,99.90
2023-04-22T18:42:32.802Z,99.90
2023-04-22T18:44:59.506Z,99.90
2023-04-22T18:47:26.649Z,99.90
2023-04-22T18:52:20.472Z,99.90
2023-04-22T18:59:42.195Z,99.90
2023-04-22T19:02:13.377Z,99.90
2023-04-22T19:09:35.833Z,99.90
2023-04-22T19:31:46.244Z,99.90
2023-04-22T19:39:08.267Z,99.90
2023-04-22T19:51:23.900Z,99.90
2023-04-22T19:56:18.564Z,99.90
2023-04-22T20:13:30.946Z,99.90
2023-04-22T20:18:26.852Z,99.90
2023-04-22T20:20:58.282Z,99.90
2023-04-22T20:23:26.365Z,99.90
2023-04-22T20:25:55.853Z,99.90
2023-04-22T20:28:23.511Z,99.90
2023-04-22T20:40:44.600Z,99.90
2023-04-22T20:53:03.169Z,99.90
2023-04-22T20:55:29.858Z,99.90
2023-04-22T21:02:51.332Z,99.90
2023-04-22T21:07:49.634Z,99.90
2023-04-22T21:10:16.656Z,99.90
2023-04-22T21:17:44.369Z,99.90
2023-04-22T21:22:42.324Z,99.90
2023-04-22T21:25:09.725Z,99.90
2023-04-22T21:39:54.603Z,99.90
2023-04-22T22:09:24.288Z,99.90
2023-04-22T22:24:09.323Z,99.90
2023-04-22T22:48:40.855Z,99.90
2023-04-22T23:01:00.506Z,99.90
2023-04-22T23:23:04.852Z,99.90
2023-04-22T23:27:58.995Z,99.90
2023-04-22T23:32:57.252Z,99.90
2023-04-22T23:35:27.284Z,99.90
2023-04-22T23:37:54.524Z,99.90
2023-04-22T23:50:10.161Z,99.90
2023-04-22T23:55:11.751Z,99.90
